sensor_id;sensor_type;location;lat;lon;timestamp;pressure;altitude;pressure_sealevel;temperature;humidity
78170;BME280;67412;49.892;14.490;2024-01-15T00:01:37;95556.38;;;-1.38;100.00
78170;BME280;67412;49.892;14.490;2024-01-15T00:04:02;95542.13;;;-1.37;100.00
78170;BME280;67412;49.892;14.490;2024-01-15T00:06:28;95543.81;;;-1.36;100.00
78170;BME280;67412;49.892;14.490;2024-01-15T00:08:53;95542.09;;;-1.40;100.00
78170;BME280;67412;49.892;14.490;2024-01-15T00:11:19;95529.50;;;-1.45;100.00
78170;BME280;67412;49.892;14.490;2024-01-15T00:13:44;95524.47;;;-1.45;100.00
78170;BME280;67412;49.892;14.490;2024-01-15T00:16:10;95515.25;;;-1.44;100.00
78170;BME280;67412;49.892;14.490;2024-01-15T00:18:35;95511.88;;;-1.45;100.00
78170;BME280;67412;49.892;14.490;2024-01-15T00:21:01;95510.16;;;-1.54;100.00
78170;BME280;67412;49.892;14.490;2024-01-15T00:23:26;95511.88;;;-1.54;100.00
78170;BME280;67412;49.892;14.490;2024-01-15T00:25:51;95510.19;;;-1.55;100.00
78170;BME280;67412;49.892;14.490;2024-01-15T00:28:17;95502.63;;;-1.58;100.00
78170;BME280;67412;49.892;14.490;2024-01-15T00:30:42;95501.75;;;-1.63;100.00
78170;BME280;67412;49.892;14.490;2024-01-15T00:33:07;95501.75;;;-1.63;100.00
78170;BME280;67412;49.892;14.490;2024-01-15T00:35:32;95497.56;;;-1.64;100.00
78170;BME280;67412;49.892;14.490;2024-01-15T00:37:58;95497.56;;;-1.64;100.00
78170;BME280;67412;49.892;14.490;2024-01-15T00:40:23;95484.13;;;-1.66;100.00
78170;BME280;67412;49.892;14.490;2024-01-15T00:42:50;95484.13;;;-1.71;100.00
78170;BME280;67412;49.892;14.490;2024-01-15T00:45:15;95486.63;;;-1.68;100.00
78170;BME280;67412;49.892;14.490;2024-01-15T00:47:41;95491.66;;;-1.71;100.00
78170;BME280;67412;49.892;14.490;2024-01-15T00:50:06;95488.28;;;-1.77;100.00
78170;BME280;67412;49.892;14.490;2024-01-15T00:52:32;95494.16;;;-1.81;100.00
78170;BME280;67412;49.892;14.490;2024-01-15T00:54:58;95483.22;;;-1.83;100.00
78170;BME280;67412;49.892;14.490;2024-01-15T00:57:23;95484.91;;;-1.85;100.00
78170;BME280;67412;49.892;14.490;2024-01-15T00:59:49;95479.81;;;-1.95;100.00
78170;BME280;67412;49.892;14.490;2024-01-15T01:02:14;95481.50;;;-1.93;100.00
78170;BME280;67412;49.892;14.490;2024-01-15T01:04:40;95478.16;;;-1.96;100.00
78170;BME280;67412;49.892;14.490;2024-01-15T01:07:05;95476.44;;;-2.01;100.00
78170;BME280;67412;49.892;14.490;2024-01-15T01:09:31;95466.41;;;-2.00;100.00
78170;BME280;67412;49.892;14.490;2024-01-15T01:11:56;95470.56;;;-2.11;100.00
78170;BME280;67412;49.892;14.490;2024-01-15T01:14:22;95482.25;;;-2.16;100.00
78170;BME280;67412;49.892;14.490;2024-01-15T01:16:47;95476.44;;;-2.07;100.00
78170;BME280;67412;49.892;14.490;2024-01-15T01:19:13;95478.09;;;-2.11;100.00
78170;BME280;67412;49.892;14.490;2024-01-15T01:21:38;95474.69;;;-2.17;100.00
78170;BME280;67412;49.892;14.490;2024-01-15T01:24:03;95469.66;;;-2.17;100.00
78170;BME280;67412;49.892;14.490;2024-01-15T01:26:30;95479.72;;;-2.20;100.00
78170;BME280;67412;49.892;14.490;2024-01-15T01:28:55;95478.03;;;-2.20;100.00
78170;BME280;67412;49.892;14.490;2024-01-15T01:31:20;95468.78;;;-2.24;100.00
78170;BME280;67412;49.892;14.490;2024-01-15T01:33:46;95467.13;;;-2.26;100.00
78170;BME280;67412;49.892;14.490;2024-01-15T01:36:11;95461.22;;;-2.30;100.00
78170;BME280;67412;49.892;14.490;2024-01-15T01:38:37;95460.34;;;-2.35;100.00
78170;BME280;67412;49.892;14.490;2024-01-15T01:41:03;95461.19;;;-2.36;100.00
78170;BME280;67412;49.892;14.490;2024-01-15T01:43:28;95448.66;;;-2.27;100.00
78170;BME280;67412;49.892;14.490;2024-01-15T01:45:56;95443.63;;;-2.27;100.00
78170;BME280;67412;49.892;14.490;2024-01-15T01:48:23;95447.84;;;-2.29;100.00
78170;BME280;67412;49.892;14.490;2024-01-15T01:50:50;95444.47;;;-2.28;100.00
78170;BME280;67412;49.892;14.490;2024-01-15T01:53:15;95447.78;;;-2.32;100.00
78170;BME280;67412;49.892;14.490;2024-01-15T01:55:41;95446.16;;;-2.30;100.00
78170;BME280;67412;49.892;14.490;2024-01-15T01:58:07;95446.16;;;-2.27;100.00
78170;BME280;67412;49.892;14.490;2024-01-15T02:00:33;95436.97;;;-2.20;100.00
78170;BME280;67412;49.892;14.490;2024-01-15T02:02:59;95436.94;;;-2.25;100.00
78170;BME280;67412;49.892;14.490;2024-01-15T02:05:25;95437.78;;;-2.23;100.00
78170;BME280;67412;49.892;14.490;2024-01-15T02:07:52;95439.47;;;-2.20;100.00
78170;BME280;67412;49.892;14.490;2024-01-15T02:10:17;95433.66;;;-2.15;100.00
78170;BME280;67412;49.892;14.490;2024-01-15T02:12:43;95432.81;;;-2.14;100.00
78170;BME280;67412;49.892;14.490;2024-01-15T02:15:09;95420.25;;;-2.14;100.00
78170;BME280;67412;49.892;14.490;2024-01-15T02:17:34;95416.88;;;-2.13;100.00
78170;BME280;67412;49.892;14.490;2024-01-15T02:19:59;95411.88;;;-2.04;100.00
78170;BME280;67412;49.892;14.490;2024-01-15T02:22:24;95409.34;;;-2.05;100.00
78170;BME280;67412;49.892;14.490;2024-01-15T02:24:50;95409.38;;;-2.07;100.00
78170;BME280;67412;49.892;14.490;2024-01-15T02:27:16;95405.16;;;-2.08;100.00
78170;BME280;67412;49.892;14.490;2024-01-15T02:29:42;95390.06;;;-2.11;100.00
78170;BME280;67412;49.892;14.490;2024-01-15T02:32:08;95396.75;;;-2.10;100.00
78170;BME280;67412;49.892;14.490;2024-01-15T02:34:34;95403.47;;;-2.09;100.00
78170;BME280;67412;49.892;14.490;2024-01-15T02:36:59;95407.69;;;-2.03;100.00
78170;BME280;67412;49.892;14.490;2024-01-15T02:39:25;95405.16;;;-2.06;100.00
78170;BME280;67412;49.892;14.490;2024-01-15T02:41:50;95413.56;;;-2.07;100.00
78170;BME280;67412;49.892;14.490;2024-01-15T02:44:15;95403.47;;;-2.09;100.00
78170;BME280;67412;49.892;14.490;2024-01-15T02:46:41;95403.50;;;-2.10;100.00
78170;BME280;67412;49.892;14.490;2024-01-15T02:49:06;95390.06;;;-2.09;100.00
78170;BME280;67412;49.892;14.490;2024-01-15T02:51:31;95392.56;;;-2.12;100.00
78170;BME280;67412;49.892;14.490;2024-01-15T02:53:56;95396.75;;;-2.10;100.00
78170;BME280;67412;49.892;14.490;2024-01-15T02:56:22;95395.94;;;-2.09;100.00
78170;BME280;67412;49.892;14.490;2024-01-15T02:58:47;95401.78;;;-2.10;100.00
78170;BME280;67412;49.892;14.490;2024-01-15T03:01:13;95399.28;;;-2.10;100.00
78170;BME280;67412;49.892;14.490;2024-01-15T03:03:40;95402.59;;;-2.17;100.00
78170;BME280;67412;49.892;14.490;2024-01-15T03:06:05;95401.78;;;-2.10;100.00
78170;BME280;67412;49.892;14.490;2024-01-15T03:08:31;95398.41;;;-2.13;100.00
78170;BME280;67412;49.892;14.490;2024-01-15T03:10:56;95388.38;;;-2.15;100.00
78170;BME280;67412;49.892;14.490;2024-01-15T03:13:21;95395.09;;;-2.14;100.00
78170;BME280;67412;49.892;14.490;2024-01-15T03:15:47;95391.72;;;-2.16;100.00
78170;BME280;67412;49.892;14.490;2024-01-15T03:18:12;95395.91;;;-2.18;100.00
78170;BME280;67412;49.892;14.490;2024-01-15T03:20:37;95411.84;;;-2.14;100.00
78170;BME280;67412;49.892;14.490;2024-01-15T03:23:03;95392.59;;;-2.11;100.00
78170;BME280;67412;49.892;14.490;2024-01-15T03:25:28;95397.63;;;-2.08;100.00
78170;BME280;67412;49.892;14.490;2024-01-15T03:27:53;95395.09;;;-2.08;100.00
78170;BME280;67412;49.892;14.490;2024-01-15T03:30:19;95390.91;;;-2.07;100.00
78170;BME280;67412;49.892;14.490;2024-01-15T03:32:44;95403.47;;;-2.09;100.00
78170;BME280;67412;49.892;14.490;2024-01-15T03:35:09;95387.53;;;-2.09;100.00
78170;BME280;67412;49.892;14.490;2024-01-15T03:37:35;95392.56;;;-2.15;100.00
78170;BME280;67412;49.892;14.490;2024-01-15T03:40:00;95390.88;;;-2.15;100.00
78170;BME280;67412;49.892;14.490;2024-01-15T03:42:26;95394.25;;;-2.14;100.00
78170;BME280;67412;49.892;14.490;2024-01-15T03:44:51;95382.50;;;-2.18;100.00
78170;BME280;67412;49.892;14.490;2024-01-15T03:47:16;95377.47;;;-2.17;100.00
78170;BME280;67412;49.892;14.490;2024-01-15T03:49:41;95381.63;;;-2.17;100.00
78170;BME280;67412;49.892;14.490;2024-01-15T03:52:07;95376.63;;;-2.22;100.00
78170;BME280;67412;49.892;14.490;2024-01-15T03:54:32;95371.59;;;-2.22;100.00
78170;BME280;67412;49.892;14.490;2024-01-15T03:56:57;95384.16;;;-2.23;100.00
78170;BME280;67412;49.892;14.490;2024-01-15T03:59:23;95383.31;;;-2.27;100.00
78170;BME280;67412;49.892;14.490;2024-01-15T04:01:49;95381.59;;;-2.28;100.00
78170;BME280;67412;49.892;14.490;2024-01-15T04:04:16;95381.59;;;-2.31;100.00
78170;BME280;67412;49.892;14.490;2024-01-15T04:06:41;95391.66;;;-2.28;100.00
78170;BME280;67412;49.892;14.490;2024-01-15T04:09:06;95383.28;;;-2.33;100.00
78170;BME280;67412;49.892;14.490;2024-01-15T04:11:31;95394.19;;;-2.31;100.00
78170;BME280;67412;49.892;14.490;2024-01-15T04:13:57;95384.13;;;-2.31;100.00
78170;BME280;67412;49.892;14.490;2024-01-15T04:16:22;95379.91;;;-2.35;100.00
78170;BME280;67412;49.892;14.490;2024-01-15T04:18:47;95374.03;;;-2.35;100.00
78170;BME280;67412;49.892;14.490;2024-01-15T04:21:13;95377.38;;;-2.39;100.00
78170;BME280;67412;49.892;14.490;2024-01-15T04:23:39;95384.09;;;-2.35;100.00
78170;BME280;67412;49.892;14.490;2024-01-15T04:26:04;95384.13;;;-2.34;100.00
78170;BME280;67412;49.892;14.490;2024-01-15T04:28:29;95391.66;;;-2.34;100.00
78170;BME280;67412;49.892;14.490;2024-01-15T04:30:55;95388.31;;;-2.33;100.00
78170;BME280;67412;49.892;14.490;2024-01-15T04:33:20;95411.78;;;-2.31;100.00
78170;BME280;67412;49.892;14.490;2024-01-15T04:35:45;95408.41;;;-2.34;100.00
78170;BME280;67412;49.892;14.490;2024-01-15T04:38:11;95407.56;;;-2.41;100.00
78170;BME280;67412;49.892;14.490;2024-01-15T04:40:36;95421.75;;;-2.43;100.00
78170;BME280;67412;49.892;14.490;2024-01-15T04:43:01;95394.13;;;-2.48;100.00
78170;BME280;67412;49.892;14.490;2024-01-15T04:45:26;95414.19;;;-2.52;100.00
78170;BME280;67412;49.892;14.490;2024-01-15T04:47:55;95405.81;;;-2.53;100.00
78170;BME280;67412;49.892;14.490;2024-01-15T04:50:23;95414.19;;;-2.54;100.00
78170;BME280;67412;49.892;14.490;2024-01-15T04:52:49;95407.47;;;-2.59;100.00
78170;BME280;67412;49.892;14.490;2024-01-15T04:55:15;95395.69;;;-2.66;100.00
78170;BME280;67412;49.892;14.490;2024-01-15T04:57:41;95394.00;;;-2.69;100.00
78170;BME280;67412;49.892;14.490;2024-01-15T05:00:07;95398.16;;;-2.74;100.00
78170;BME280;67412;49.892;14.490;2024-01-15T05:02:33;95381.38;;;-2.79;100.00
78170;BME280;67412;49.892;14.490;2024-01-15T05:04:58;95400.63;;;-2.81;100.00
78170;BME280;67412;49.892;14.490;2024-01-15T05:07:23;95414.00;;;-2.81;100.00
78170;BME280;67412;49.892;14.490;2024-01-15T05:09:49;95413.19;;;-2.81;100.00
78170;BME280;67412;49.892;14.490;2024-01-15T05:12:14;95403.97;;;-2.85;100.00
78170;BME280;67412;49.892;14.490;2024-01-15T05:14:39;95386.34;;;-2.87;100.00
78170;BME280;67412;49.892;14.490;2024-01-15T05:17:05;95390.50;;;-2.94;100.00
78170;BME280;67412;49.892;14.490;2024-01-15T05:19:30;95408.09;;;-2.94;100.00
78170;BME280;67412;49.892;14.490;2024-01-15T05:21:55;95404.72;;;-2.97;100.00
78170;BME280;67412;49.892;14.490;2024-01-15T05:24:21;95407.22;;;-2.96;100.00
78170;BME280;67412;49.892;14.490;2024-01-15T05:26:46;95407.25;;;-2.92;100.00
78170;BME280;67412;49.892;14.490;2024-01-15T05:29:12;95399.69;;;-2.96;100.00
78170;BME280;67412;49.892;14.490;2024-01-15T05:31:37;95394.66;;;-3.00;100.00
78170;BME280;67412;49.892;14.490;2024-01-15T05:34:02;95401.34;;;-3.01;100.00
78170;BME280;67412;49.892;14.490;2024-01-15T05:36:28;95406.31;;;-3.07;100.00
78170;BME280;67412;49.892;14.490;2024-01-15T05:38:53;95398.78;;;-3.04;100.00
78170;BME280;67412;49.892;14.490;2024-01-15T05:41:18;95396.28;;;-3.04;100.00
78170;BME280;67412;49.892;14.490;2024-01-15T05:43:44;95408.84;;;-3.02;100.00
78170;BME280;67412;49.892;14.490;2024-01-15T05:46:09;95421.44;;;-3.01;100.00
78170;BME280;67412;49.892;14.490;2024-01-15T05:48:34;95429.81;;;-3.00;100.00
78170;BME280;67412;49.892;14.490;2024-01-15T05:50:59;95433.16;;;-2.98;100.00
78170;BME280;67412;49.892;14.490;2024-01-15T05:53:25;95446.59;;;-2.95;100.00
78170;BME280;67412;49.892;14.490;2024-01-15T05:55:50;95431.50;;;-2.95;100.00
78170;BME280;67412;49.892;14.490;2024-01-15T05:58:15;95448.25;;;-2.97;100.00
78170;BME280;67412;49.892;14.490;2024-01-15T06:00:41;95452.41;;;-2.99;100.00
78170;BME280;67412;49.892;14.490;2024-01-15T06:03:06;95439.88;;;-3.00;100.00
78170;BME280;67412;49.892;14.490;2024-01-15T06:05:31;95449.88;;;-3.02;100.00
78170;BME280;67412;49.892;14.490;2024-01-15T06:07:57;95454.91;;;-3.02;100.00
78170;BME280;67412;49.892;14.490;2024-01-15T06:10:22;95461.56;;;-3.07;100.00
78170;BME280;67412;49.892;14.490;2024-01-15T06:12:48;95462.41;;;-3.03;100.00
78170;BME280;67412;49.892;14.490;2024-01-15T06:15:13;95452.38;;;-3.03;100.00
78170;BME280;67412;49.892;14.490;2024-01-15T06:17:38;95458.22;;;-3.06;100.00
78170;BME280;67412;49.892;14.490;2024-01-15T06:20:04;95449.81;;;-3.09;100.00
78170;BME280;67412;49.892;14.490;2024-01-15T06:22:30;95458.19;;;-3.09;100.00
78170;BME280;67412;49.892;14.490;2024-01-15T06:24:55;95442.25;;;-3.11;100.00
78170;BME280;67412;49.892;14.490;2024-01-15T06:27:21;95453.16;;;-3.12;100.00
78170;BME280;67412;49.892;14.490;2024-01-15T06:29:46;95458.19;;;-3.09;100.00
78170;BME280;67412;49.892;14.490;2024-01-15T06:32:14;95460.66;;;-3.15;100.00
78170;BME280;67412;49.892;14.490;2024-01-15T06:34:40;95474.91;;;-3.15;100.00
78170;BME280;67412;49.892;14.490;2024-01-15T06:37:06;95474.03;;;-3.14;100.00
78170;BME280;67412;49.892;14.490;2024-01-15T06:39:31;95488.31;;;-3.12;100.00
78170;BME280;67412;49.892;14.490;2024-01-15T06:41:56;95494.19;;;-3.11;100.00
78170;BME280;67412;49.892;14.490;2024-01-15T06:44:22;95458.13;;;-3.18;100.00
78170;BME280;67412;49.892;14.490;2024-01-15T06:46:47;95468.13;;;-3.21;100.00
78170;BME280;67412;49.892;14.490;2024-01-15T06:49:13;95482.44;;;-3.15;100.00
78170;BME280;67412;49.892;14.490;2024-01-15T06:51:38;95482.44;;;-3.15;100.00
78170;BME280;67412;49.892;14.490;2024-01-15T06:54:04;95478.22;;;-3.15;100.00
78170;BME280;67412;49.892;14.490;2024-01-15T06:56:29;95464.84;;;-3.14;100.00
78170;BME280;67412;49.892;14.490;2024-01-15T06:58:55;95464.06;;;-3.11;100.00
78170;BME280;67412;49.892;14.490;2024-01-15T07:01:20;95483.31;;;-3.07;100.00
78170;BME280;67412;49.892;14.490;2024-01-15T07:03:46;95478.34;;;-3.03;100.00
78170;BME280;67412;49.892;14.490;2024-01-15T07:06:12;95490.97;;;-2.97;100.00
78170;BME280;67412;49.892;14.490;2024-01-15T07:08:38;95488.41;;;-2.98;100.00
78170;BME280;67412;49.892;14.490;2024-01-15T07:11:04;95495.94;;;-3.00;100.00
78170;BME280;67412;49.892;14.490;2024-01-15T07:13:29;95492.59;;;-2.99;100.00
78170;BME280;67412;49.892;14.490;2024-01-15T07:15:55;95480.06;;;-2.96;100.00
78170;BME280;67412;49.892;14.490;2024-01-15T07:18:20;95485.06;;;-2.96;100.00
78170;BME280;67412;49.892;14.490;2024-01-15T07:20:45;95491.78;;;-2.98;100.00
78170;BME280;67412;49.892;14.490;2024-01-15T07:23:11;95490.09;;;-2.96;100.00
78170;BME280;67412;49.892;14.490;2024-01-15T07:25:37;95491.81;;;-2.92;100.00
78170;BME280;67412;49.892;14.490;2024-01-15T07:28:02;95482.63;;;-2.89;100.00
78170;BME280;67412;49.892;14.490;2024-01-15T07:30:28;95491.81;;;-2.93;100.00
78170;BME280;67412;49.892;14.490;2024-01-15T07:32:54;95486.00;;;-2.89;100.00
78170;BME280;67412;49.892;14.490;2024-01-15T07:35:19;95478.44;;;-2.87;100.00
78170;BME280;67412;49.892;14.490;2024-01-15T07:37:45;95502.78;;;-2.82;100.00
78170;BME280;67412;49.892;14.490;2024-01-15T07:40:10;95486.06;;;-2.81;100.00
78170;BME280;67412;49.892;14.490;2024-01-15T07:42:36;95495.25;;;-2.77;100.00
78170;BME280;67412;49.892;14.490;2024-01-15T07:45:01;95502.00;;;-2.78;100.00
78170;BME280;67412;49.892;14.490;2024-01-15T07:47:26;95500.28;;;-2.82;100.00
78170;BME280;67412;49.892;14.490;2024-01-15T07:49:53;95497.75;;;-2.82;100.00
78170;BME280;67412;49.892;14.490;2024-01-15T07:52:19;95494.44;;;-2.79;100.00
78170;BME280;67412;49.892;14.490;2024-01-15T07:54:44;95488.63;;;-2.74;100.00
78170;BME280;67412;49.892;14.490;2024-01-15T07:57:10;95484.44;;;-2.69;100.00
78170;BME280;67412;49.892;14.490;2024-01-15T07:59:35;95490.34;;;-2.62;100.00
78170;BME280;67412;49.892;14.490;2024-01-15T08:02:00;95489.53;;;-2.61;100.00
78170;BME280;67412;49.892;14.490;2024-01-15T08:04:26;95505.44;;;-2.62;100.00
78170;BME280;67412;49.892;14.490;2024-01-15T08:06:51;95487.03;;;-2.58;100.00
78170;BME280;67412;49.892;14.490;2024-01-15T08:09:17;95480.38;;;-2.53;100.00
78170;BME280;67412;49.892;14.490;2024-01-15T08:11:43;95493.78;;;-2.51;100.00
78170;BME280;67412;49.892;14.490;2024-01-15T08:14:09;95480.38;;;-2.50;100.00
78170;BME280;67412;49.892;14.490;2024-01-15T08:16:36;95482.91;;;-2.49;100.00
78170;BME280;67412;49.892;14.490;2024-01-15T08:19:02;95479.63;;;-2.40;100.00
78170;BME280;67412;49.892;14.490;2024-01-15T08:21:27;95479.66;;;-2.34;100.00
78170;BME280;67412;49.892;14.490;2024-01-15T08:24:00;95477.16;;;-2.31;100.00
78170;BME280;67412;49.892;14.490;2024-01-15T08:26:25;95460.44;;;-2.23;100.00
78170;BME280;67412;49.892;14.490;2024-01-15T08:28:51;95478.94;;;-2.09;100.00
78170;BME280;67412;49.892;14.490;2024-01-15T08:31:16;95483.94;;;-2.12;100.00
78170;BME280;67412;49.892;14.490;2024-01-15T08:33:42;95478.97;;;-1.98;100.00
78170;BME280;67412;49.892;14.490;2024-01-15T08:36:09;95477.31;;;-1.95;100.00
78170;BME280;67412;49.892;14.490;2024-01-15T08:38:34;95469.81;;;-1.85;100.00
78170;BME280;67412;49.892;14.490;2024-01-15T08:41:00;95467.28;;;-1.82;100.00
78170;BME280;67412;49.892;14.490;2024-01-15T08:43:26;95489.06;;;-1.97;100.00
78170;BME280;67412;49.892;14.490;2024-01-15T08:45:52;95466.44;;;-1.95;100.00
78170;BME280;67412;49.892;14.490;2024-01-15T08:48:17;95467.28;;;-1.91;100.00
78170;BME280;67412;49.892;14.490;2024-01-15T08:50:42;95483.19;;;-1.92;100.00
78170;BME280;67412;49.892;14.490;2024-01-15T08:53:08;95479.84;;;-1.93;100.00
78170;BME280;67412;49.892;14.490;2024-01-15T08:55:33;95492.44;;;-1.88;100.00
78170;BME280;67412;49.892;14.490;2024-01-15T08:57:59;95493.25;;;-1.91;100.00
78170;BME280;67412;49.892;14.490;2024-01-15T09:00:24;95500.84;;;-1.82;100.00
78170;BME280;67412;49.892;14.490;2024-01-15T09:02:49;95475.72;;;-1.80;100.00
78170;BME280;67412;49.892;14.490;2024-01-15T09:05:15;95478.25;;;-1.73;100.00
78170;BME280;67412;49.892;14.490;2024-01-15T09:07:40;95482.44;;;-1.73;100.00
78170;BME280;67412;49.892;14.490;2024-01-15T09:10:06;95469.84;;;-1.72;100.00
78170;BME280;67412;49.892;14.490;2024-01-15T09:12:31;95479.09;;;-1.69;100.00
78170;BME280;67412;49.892;14.490;2024-01-15T09:14:57;95453.94;;;-1.66;99.66
78170;BME280;67412;49.892;14.490;2024-01-15T09:17:22;95494.25;;;-1.54;99.81
78170;BME280;67412;49.892;14.490;2024-01-15T09:19:50;95468.22;;;-1.59;99.04
78170;BME280;67412;49.892;14.490;2024-01-15T09:22:16;95481.63;;;-1.62;98.83
78170;BME280;67412;49.892;14.490;2024-01-15T09:24:45;95471.59;;;-1.48;98.72
78170;BME280;67412;49.892;14.490;2024-01-15T09:27:10;95489.16;;;-1.65;98.59
78170;BME280;67412;49.892;14.490;2024-01-15T09:29:36;95485.81;;;-1.61;100.00
78170;BME280;67412;49.892;14.490;2024-01-15T09:32:07;95495.03;;;-1.67;100.00
78170;BME280;67412;49.892;14.490;2024-01-15T09:34:33;95479.94;;;-1.66;100.00
78170;BME280;67412;49.892;14.490;2024-01-15T09:36:58;95485.81;;;-1.64;100.00
78170;BME280;67412;49.892;14.490;2024-01-15T09:39:25;95487.50;;;-1.60;100.00
78170;BME280;67412;49.892;14.490;2024-01-15T09:41:52;95490.81;;;-1.68;99.52
78170;BME280;67412;49.892;14.490;2024-01-15T09:44:19;95474.03;;;-1.72;98.01
78170;BME280;67412;49.892;14.490;2024-01-15T09:46:45;95471.53;;;-1.71;99.39
78170;BME280;67412;49.892;14.490;2024-01-15T09:49:11;95478.25;;;-1.70;98.65
78170;BME280;67412;49.892;14.490;2024-01-15T09:51:38;95477.38;;;-1.72;97.95
78170;BME280;67412;49.892;14.490;2024-01-15T09:54:04;95469.00;;;-1.78;97.80
78170;BME280;67412;49.892;14.490;2024-01-15T09:56:30;95458.09;;;-1.80;97.23
78170;BME280;67412;49.892;14.490;2024-01-15T09:59:00;95464.81;;;-1.70;99.43
78170;BME280;67412;49.892;14.490;2024-01-15T10:01:26;95461.44;;;-1.72;98.66
78170;BME280;67412;49.892;14.490;2024-01-15T10:03:51;95443.03;;;-1.65;99.77
78170;BME280;67412;49.892;14.490;2024-01-15T10:06:18;95456.44;;;-1.57;98.59
78170;BME280;67412;49.892;14.490;2024-01-15T10:08:50;95441.38;;;-1.54;97.68
78170;BME280;67412;49.892;14.490;2024-01-15T10:11:16;95443.88;;;-1.57;97.63
78170;BME280;67412;49.892;14.490;2024-01-15T10:13:43;95434.63;;;-1.61;96.69
78170;BME280;67412;49.892;14.490;2024-01-15T10:16:09;95454.78;;;-1.58;97.29
78170;BME280;67412;49.892;14.490;2024-01-15T10:18:34;95443.88;;;-1.50;96.53
78170;BME280;67412;49.892;14.490;2024-01-15T10:21:02;95438.00;;;-1.52;96.65
78170;BME280;67412;49.892;14.490;2024-01-15T10:23:28;95446.41;;;-1.54;94.94
78170;BME280;67412;49.892;14.490;2024-01-15T10:25:53;95428.78;;;-1.51;95.37
78170;BME280;67412;49.892;14.490;2024-01-15T10:28:19;95433.00;;;-1.50;94.62
78170;BME280;67412;49.892;14.490;2024-01-15T10:30:45;95432.16;;;-1.44;96.40
78170;BME280;67412;49.892;14.490;2024-01-15T10:33:11;95427.13;;;-1.44;95.68
78170;BME280;67412;49.892;14.490;2024-01-15T10:35:38;95425.44;;;-1.38;95.77
78170;BME280;67412;49.892;14.490;2024-01-15T10:38:05;95432.16;;;-1.37;95.50
78170;BME280;67412;49.892;14.490;2024-01-15T10:40:31;95435.53;;;-1.30;95.50
78170;BME280;67412;49.892;14.490;2024-01-15T10:42:56;95417.06;;;-1.37;95.32
78170;BME280;67412;49.892;14.490;2024-01-15T10:45:22;95414.53;;;-1.34;95.74
78170;BME280;67412;49.892;14.490;2024-01-15T10:47:48;95412.88;;;-1.32;95.89
78170;BME280;67412;49.892;14.490;2024-01-15T10:50:14;95411.19;;;-1.30;95.82
78170;BME280;67412;49.892;14.490;2024-01-15T10:52:40;95410.34;;;-1.26;94.77
78170;BME280;67412;49.892;14.490;2024-01-15T10:55:09;95412.00;;;-1.34;94.89
78170;BME280;67412;49.892;14.490;2024-01-15T10:57:36;95414.53;;;-1.29;94.35
78170;BME280;67412;49.892;14.490;2024-01-15T11:00:04;95406.97;;;-1.23;95.24
78170;BME280;67412;49.892;14.490;2024-01-15T11:02:32;95403.63;;;-1.27;94.34
78170;BME280;67412;49.892;14.490;2024-01-15T11:04:58;95401.09;;;-1.27;94.56
78170;BME280;67412;49.892;14.490;2024-01-15T11:07:24;95427.16;;;-1.28;94.51
78170;BME280;67412;49.892;14.490;2024-01-15T11:09:50;95401.97;;;-1.20;95.32
78170;BME280;67412;49.892;14.490;2024-01-15T11:12:16;95410.34;;;-1.24;93.55
78170;BME280;67412;49.892;14.490;2024-01-15T11:14:46;95418.72;;;-1.30;93.05
78170;BME280;67412;49.892;14.490;2024-01-15T11:17:13;95400.28;;;-1.24;94.23
78170;BME280;67412;49.892;14.490;2024-01-15T11:25:17;95423.78;;;-1.19;94.92
78170;BME280;67412;49.892;14.490;2024-01-15T11:27:45;95413.72;;;-1.18;93.68
78170;BME280;67412;49.892;14.490;2024-01-15T11:30:13;95412.00;;;-1.16;94.44
78170;BME280;67412;49.892;14.490;2024-01-15T11:32:39;95407.84;;;-1.14;95.32
78170;BME280;67412;49.892;14.490;2024-01-15T11:35:08;95402.78;;;-1.15;95.00
78170;BME280;67412;49.892;14.490;2024-01-15T11:42:58;95409.50;;;-1.11;94.11
78170;BME280;67412;49.892;14.490;2024-01-15T11:45:24;95412.84;;;-1.08;94.09
78170;BME280;67412;49.892;14.490;2024-01-15T11:50:42;95393.56;;;-1.06;93.84
78170;BME280;67412;49.892;14.490;2024-01-15T11:53:13;95404.47;;;-1.02;93.85
78170;BME280;67412;49.892;14.490;2024-01-15T11:55:43;95395.22;;;-1.05;93.93
78170;BME280;67412;49.892;14.490;2024-01-15T11:58:10;95394.41;;;-1.05;93.62
78170;BME280;67412;49.892;14.490;2024-01-15T12:00:43;95385.97;;;-1.12;93.84
78170;BME280;67412;49.892;14.490;2024-01-15T12:03:09;95400.28;;;-1.06;94.02
78170;BME280;67412;49.892;14.490;2024-01-15T12:05:37;95395.25;;;-1.02;94.04
78170;BME280;67412;49.892;14.490;2024-01-15T12:08:02;95397.75;;;-0.95;94.22
78170;BME280;67412;49.892;14.490;2024-01-15T12:10:28;95398.56;;;-0.97;94.73
78170;BME280;67412;49.892;14.490;2024-01-15T12:12:58;95408.66;;;-1.00;93.50
78170;BME280;67412;49.892;14.490;2024-01-15T12:15:24;95396.06;;;-1.03;93.78
78170;BME280;67412;49.892;14.490;2024-01-15T12:17:50;95390.19;;;-0.95;94.65
78170;BME280;67412;49.892;14.490;2024-01-15T12:20:17;95391.88;;;-0.94;95.54
78170;BME280;67412;49.892;14.490;2024-01-15T12:22:43;95399.41;;;-0.91;94.97
78170;BME280;67412;49.892;14.490;2024-01-15T12:25:09;95390.19;;;-0.95;94.78
78170;BME280;67412;49.892;14.490;2024-01-15T12:27:35;95386.00;;;-0.98;94.38
78170;BME280;67412;49.892;14.490;2024-01-15T12:30:00;95396.06;;;-1.04;93.71
78170;BME280;67412;49.892;14.490;2024-01-15T12:32:26;95389.34;;;-1.07;94.66
78170;BME280;67412;49.892;14.490;2024-01-15T12:34:51;95396.06;;;-1.09;95.57
78170;BME280;67412;49.892;14.490;2024-01-15T12:37:20;95389.34;;;-1.11;94.23
78170;BME280;67412;49.892;14.490;2024-01-15T12:39:45;95385.97;;;-1.09;94.72
78170;BME280;67412;49.892;14.490;2024-01-15T12:42:11;95392.72;;;-1.09;95.12
78170;BME280;67412;49.892;14.490;2024-01-15T12:44:37;95375.91;;;-1.07;93.48
78170;BME280;67412;49.892;14.490;2024-01-15T12:47:06;95385.16;;;-1.08;93.20
78170;BME280;67412;49.892;14.490;2024-01-15T12:49:31;95388.50;;;-1.09;94.99